sensor_id;sensor_type;location;lat;lon;timestamp;P1;durP1;ratioP1;P2;durP2;ratioP2
71566;SDS011;59403;47.456;19.120;2023-08-20T00:01:19;14.05;;;12.48;;
71566;SDS011;59403;47.456;19.120;2023-08-20T00:03:49;13.85;;;12.45;;
71566;SDS011;59403;47.456;19.120;2023-08-20T00:06:18;15.85;;;13.23;;
71566;SDS011;59403;47.456;19.120;2023-08-20T00:08:45;14.40;;;12.90;;
71566;SDS011;59403;47.456;19.120;2023-08-20T00:11:14;17.77;;;13.63;;
71566;SDS011;59403;47.456;19.120;2023-08-20T00:13:41;15.38;;;12.65;;
71566;SDS011;59403;47.456;19.120;2023-08-20T00:16:09;14.57;;;13.07;;
71566;SDS011;59403;47.456;19.120;2023-08-20T00:18:36;14.45;;;12.68;;
71566;SDS011;59403;47.456;19.120;2023-08-20T00:21:04;14.95;;;13.35;;
71566;SDS011;59403;47.456;19.120;2023-08-20T00:23:32;16.57;;;13.37;;
71566;SDS011;59403;47.456;19.120;2023-08-20T00:25:59;15.02;;;13.48;;
71566;SDS011;59403;47.456;19.120;2023-08-20T00:28:28;16.50;;;12.75;;
71566;SDS011;59403;47.456;19.120;2023-08-20T00:30:56;18.27;;;13.52;;
71566;SDS011;59403;47.456;19.120;2023-08-20T00:33:23;16.70;;;13.30;;
71566;SDS011;59403;47.456;19.120;2023-08-20T00:35:50;16.70;;;12.93;;
71566;SDS011;59403;47.456;19.120;2023-08-20T00:38:17;16.23;;;12.90;;
71566;SDS011;59403;47.456;19.120;2023-08-20T00:40:44;14.77;;;13.20;;
71566;SDS011;59403;47.456;19.120;2023-08-20T00:43:10;14.82;;;12.82;;
71566;SDS011;59403;47.456;19.120;2023-08-20T00:45:39;15.90;;;12.82;;
71566;SDS011;59403;47.456;19.120;2023-08-20T00:48:07;14.47;;;12.80;;
71566;SDS011;59403;47.456;19.120;2023-08-20T00:50:35;14.48;;;12.50;;
71566;SDS011;59403;47.456;19.120;2023-08-20T00:53:02;17.35;;;13.90;;
71566;SDS011;59403;47.456;19.120;2023-08-20T00:55:29;17.02;;;13.23;;
71566;SDS011;59403;47.456;19.120;2023-08-20T00:57:56;16.02;;;12.43;;
71566;SDS011;59403;47.456;19.120;2023-08-20T01:00:23;15.23;;;12.60;;
71566;SDS011;59403;47.456;19.120;2023-08-20T01:05:37;17.30;;;12.75;;
71566;SDS011;59403;47.456;19.120;2023-08-20T01:08:12;14.40;;;12.48;;
71566;SDS011;59403;47.456;19.120;2023-08-20T01:10:53;16.40;;;13.00;;
71566;SDS011;59403;47.456;19.120;2023-08-20T01:13:25;16.10;;;14.13;;
71566;SDS011;59403;47.456;19.120;2023-08-20T01:15:52;14.80;;;13.18;;
71566;SDS011;59403;47.456;19.120;2023-08-20T01:18:19;14.23;;;12.52;;
71566;SDS011;59403;47.456;19.120;2023-08-20T01:20:50;16.17;;;12.75;;
71566;SDS011;59403;47.456;19.120;2023-08-20T01:23:24;14.18;;;12.68;;
71566;SDS011;59403;47.456;19.120;2023-08-20T01:26:20;13.93;;;12.00;;
71566;SDS011;59403;47.456;19.120;2023-08-20T01:28:59;15.68;;;12.30;;
71566;SDS011;59403;47.456;19.120;2023-08-20T01:31:26;15.30;;;12.32;;
71566;SDS011;59403;47.456;19.120;2023-08-20T01:33:54;14.50;;;12.88;;
71566;SDS011;59403;47.456;19.120;2023-08-20T01:36:21;17.95;;;13.02;;
71566;SDS011;59403;47.456;19.120;2023-08-20T01:38:48;14.13;;;12.23;;
71566;SDS011;59403;47.456;19.120;2023-08-20T01:41:16;19.40;;;12.18;;
71566;SDS011;59403;47.456;19.120;2023-08-20T01:43:43;15.25;;;12.88;;
71566;SDS011;59403;47.456;19.120;2023-08-20T01:46:11;14.95;;;12.63;;
71566;SDS011;59403;47.456;19.120;2023-08-20T01:48:38;14.00;;;12.50;;
71566;SDS011;59403;47.456;19.120;2023-08-20T01:51:05;13.40;;;12.00;;
71566;SDS011;59403;47.456;19.120;2023-08-20T01:53:33;13.88;;;11.95;;
71566;SDS011;59403;47.456;19.120;2023-08-20T01:56:00;15.18;;;12.73;;
71566;SDS011;59403;47.456;19.120;2023-08-20T01:58:27;13.70;;;12.30;;
71566;SDS011;59403;47.456;19.120;2023-08-20T02:00:56;15.38;;;12.13;;
71566;SDS011;59403;47.456;19.120;2023-08-20T02:03:24;16.40;;;12.47;;
71566;SDS011;59403;47.456;19.120;2023-08-20T02:05:51;14.75;;;11.65;;
71566;SDS011;59403;47.456;19.120;2023-08-20T02:08:18;14.07;;;12.57;;
71566;SDS011;59403;47.456;19.120;2023-08-20T02:10:45;17.58;;;12.60;;
71566;SDS011;59403;47.456;19.120;2023-08-20T02:13:11;14.13;;;11.93;;
71566;SDS011;59403;47.456;19.120;2023-08-20T02:15:38;14.80;;;12.53;;
71566;SDS011;59403;47.456;19.120;2023-08-20T02:18:05;14.15;;;12.65;;
71566;SDS011;59403;47.456;19.120;2023-08-20T02:20:34;16.00;;;13.02;;
71566;SDS011;59403;47.456;19.120;2023-08-20T02:23:01;14.52;;;11.98;;
71566;SDS011;59403;47.456;19.120;2023-08-20T02:25:28;15.48;;;12.55;;
71566;SDS011;59403;47.456;19.120;2023-08-20T02:27:55;16.30;;;12.10;;
71566;SDS011;59403;47.456;19.120;2023-08-20T02:30:22;14.57;;;12.00;;
71566;SDS011;59403;47.456;19.120;2023-08-20T02:32:49;14.77;;;12.13;;
71566;SDS011;59403;47.456;19.120;2023-08-20T02:35:16;14.60;;;12.63;;
71566;SDS011;59403;47.456;19.120;2023-08-20T02:37:44;14.00;;;12.30;;
71566;SDS011;59403;47.456;19.120;2023-08-20T02:40:11;14.00;;;12.50;;
71566;SDS011;59403;47.456;19.120;2023-08-20T02:42:39;15.75;;;13.30;;
71566;SDS011;59403;47.456;19.120;2023-08-20T02:45:06;14.73;;;13.13;;
71566;SDS011;59403;47.456;19.120;2023-08-20T02:47:35;17.02;;;12.82;;
71566;SDS011;59403;47.456;19.120;2023-08-20T02:50:01;16.02;;;12.82;;
71566;SDS011;59403;47.456;19.120;2023-08-20T02:52:29;15.57;;;12.50;;
71566;SDS011;59403;47.456;19.120;2023-08-20T02:54:57;14.82;;;12.63;;
71566;SDS011;59403;47.456;19.120;2023-08-20T02:57:24;16.42;;;13.18;;
71566;SDS011;59403;47.456;19.120;2023-08-20T02:59:51;17.12;;;12.93;;
71566;SDS011;59403;47.456;19.120;2023-08-20T03:02:18;16.67;;;12.43;;
71566;SDS011;59403;47.456;19.120;2023-08-20T03:04:45;14.83;;;11.70;;
71566;SDS011;59403;47.456;19.120;2023-08-20T03:07:12;15.95;;;12.40;;
71566;SDS011;59403;47.456;19.120;2023-08-20T03:09:39;14.85;;;12.70;;
71566;SDS011;59403;47.456;19.120;2023-08-20T03:12:08;13.88;;;12.10;;
71566;SDS011;59403;47.456;19.120;2023-08-20T03:14:34;14.32;;;12.35;;
71566;SDS011;59403;47.456;19.120;2023-08-20T03:17:01;15.23;;;13.33;;
71566;SDS011;59403;47.456;19.120;2023-08-20T03:19:32;13.55;;;12.15;;
71566;SDS011;59403;47.456;19.120;2023-08-20T03:22:00;14.65;;;12.43;;
71566;SDS011;59403;47.456;19.120;2023-08-20T03:24:27;18.50;;;12.60;;
71566;SDS011;59403;47.456;19.120;2023-08-20T03:26:53;15.07;;;12.90;;
71566;SDS011;59403;47.456;19.120;2023-08-20T03:29:22;15.83;;;12.10;;
71566;SDS011;59403;47.456;19.120;2023-08-20T03:31:49;15.15;;;12.20;;
71566;SDS011;59403;47.456;19.120;2023-08-20T03:34:16;14.18;;;12.68;;
71566;SDS011;59403;47.456;19.120;2023-08-20T03:36:42;16.60;;;13.30;;
71566;SDS011;59403;47.456;19.120;2023-08-20T03:39:10;14.95;;;12.55;;
71566;SDS011;59403;47.456;19.120;2023-08-20T03:41:37;14.87;;;12.03;;
71566;SDS011;59403;47.456;19.120;2023-08-20T03:44:03;15.00;;;11.93;;
71566;SDS011;59403;47.456;19.120;2023-08-20T03:46:32;13.30;;;11.90;;
71566;SDS011;59403;47.456;19.120;2023-08-20T03:48:59;14.93;;;12.50;;
71566;SDS011;59403;47.456;19.120;2023-08-20T03:51:26;16.00;;;11.90;;
71566;SDS011;59403;47.456;19.120;2023-08-20T03:53:53;13.50;;;12.10;;
71566;SDS011;59403;47.456;19.120;2023-08-20T03:56:20;14.80;;;12.30;;
71566;SDS011;59403;47.456;19.120;2023-08-20T03:58:47;13.73;;;12.27;;
71566;SDS011;59403;47.456;19.120;2023-08-20T04:01:14;14.18;;;12.70;;
71566;SDS011;59403;47.456;19.120;2023-08-20T04:03:42;15.77;;;11.93;;
71566;SDS011;59403;47.456;19.120;2023-08-20T04:06:09;15.77;;;12.17;;
71566;SDS011;59403;47.456;19.120;2023-08-20T04:08:36;15.15;;;12.85;;
71566;SDS011;59403;47.456;19.120;2023-08-20T04:11:03;14.75;;;12.90;;
71566;SDS011;59403;47.456;19.120;2023-08-20T04:13:30;16.90;;;12.25;;
71566;SDS011;59403;47.456;19.120;2023-08-20T04:15:57;13.70;;;12.18;;
71566;SDS011;59403;47.456;19.120;2023-08-20T04:18:24;16.07;;;12.47;;
71566;SDS011;59403;47.456;19.120;2023-08-20T04:20:53;14.63;;;12.68;;
71566;SDS011;59403;47.456;19.120;2023-08-20T04:23:20;14.25;;;12.48;;
71566;SDS011;59403;47.456;19.120;2023-08-20T04:25:47;16.25;;;12.70;;
71566;SDS011;59403;47.456;19.120;2023-08-20T04:28:14;14.02;;;12.25;;
71566;SDS011;59403;47.456;19.120;2023-08-20T04:30:41;16.17;;;13.30;;
71566;SDS011;59403;47.456;19.120;2023-08-20T04:33:08;16.60;;;13.18;;
71566;SDS011;59403;47.456;19.120;2023-08-20T04:35:35;15.13;;;13.18;;
71566;SDS011;59403;47.456;19.120;2023-08-20T04:38:04;15.52;;;12.57;;
71566;SDS011;59403;47.456;19.120;2023-08-20T04:40:31;17.52;;;13.52;;
71566;SDS011;59403;47.456;19.120;2023-08-20T04:42:57;14.87;;;13.23;;
71566;SDS011;59403;47.456;19.120;2023-08-20T04:45:24;16.52;;;13.32;;
71566;SDS011;59403;47.456;19.120;2023-08-20T04:47:51;16.83;;;13.07;;
71566;SDS011;59403;47.456;19.120;2023-08-20T04:50:18;16.77;;;13.57;;
71566;SDS011;59403;47.456;19.120;2023-08-20T04:52:45;16.60;;;13.05;;
71566;SDS011;59403;47.456;19.120;2023-08-20T04:55:13;14.83;;;12.33;;
71566;SDS011;59403;47.456;19.120;2023-08-20T04:57:41;14.07;;;12.32;;
71566;SDS011;59403;47.456;19.120;2023-08-20T05:00:08;13.70;;;12.30;;
71566;SDS011;59403;47.456;19.120;2023-08-20T05:02:35;14.52;;;12.52;;
71566;SDS011;59403;47.456;19.120;2023-08-20T05:05:03;13.88;;;11.88;;
71566;SDS011;59403;47.456;19.120;2023-08-20T05:07:30;13.07;;;11.43;;
71566;SDS011;59403;47.456;19.120;2023-08-20T05:09:57;13.88;;;11.88;;
71566;SDS011;59403;47.456;19.120;2023-08-20T05:12:26;15.30;;;12.52;;
71566;SDS011;59403;47.456;19.120;2023-08-20T05:14:52;14.07;;;12.50;;
71566;SDS011;59403;47.456;19.120;2023-08-20T05:17:19;14.55;;;12.75;;
71566;SDS011;59403;47.456;19.120;2023-08-20T05:19:46;15.93;;;13.00;;
71566;SDS011;59403;47.456;19.120;2023-08-20T05:22:13;13.13;;;11.73;;
71566;SDS011;59403;47.456;19.120;2023-08-20T05:24:40;13.90;;;12.40;;
71566;SDS011;59403;47.456;19.120;2023-08-20T05:27:08;15.25;;;11.60;;
71566;SDS011;59403;47.456;19.120;2023-08-20T05:29:37;14.32;;;12.37;;
71566;SDS011;59403;47.456;19.120;2023-08-20T05:32:04;14.40;;;12.50;;
71566;SDS011;59403;47.456;19.120;2023-08-20T05:34:31;17.17;;;12.57;;
71566;SDS011;59403;47.456;19.120;2023-08-20T05:36:58;15.05;;;11.95;;
71566;SDS011;59403;47.456;19.120;2023-08-20T05:39:26;13.80;;;12.37;;
71566;SDS011;59403;47.456;19.120;2023-08-20T05:41:52;13.95;;;12.43;;
71566;SDS011;59403;47.456;19.120;2023-08-20T05:44:19;13.70;;;12.30;;
71566;SDS011;59403;47.456;19.120;2023-08-20T05:46:48;14.27;;;12.27;;
71566;SDS011;59403;47.456;19.120;2023-08-20T05:49:15;17.05;;;12.37;;
71566;SDS011;59403;47.456;19.120;2023-08-20T05:51:42;12.95;;;11.65;;
71566;SDS011;59403;47.456;19.120;2023-08-20T05:54:09;13.45;;;11.07;;
71566;SDS011;59403;47.456;19.120;2023-08-20T05:56:35;13.83;;;12.13;;
71566;SDS011;59403;47.456;19.120;2023-08-20T05:59:03;13.75;;;12.32;;
71566;SDS011;59403;47.456;19.120;2023-08-20T06:01:30;13.70;;;12.30;;
71566;SDS011;59403;47.456;19.120;2023-08-20T06:03:58;13.68;;;12.25;;
71566;SDS011;59403;47.456;19.120;2023-08-20T06:06:25;13.98;;;12.50;;
71566;SDS011;59403;47.456;19.120;2023-08-20T06:08:52;14.27;;;12.83;;
71566;SDS011;59403;47.456;19.120;2023-08-20T06:11:19;13.40;;;11.32;;
71566;SDS011;59403;47.456;19.120;2023-08-20T06:13:47;12.50;;;11.05;;
71566;SDS011;59403;47.456;19.120;2023-08-20T06:16:14;15.48;;;13.93;;
71566;SDS011;59403;47.456;19.120;2023-08-20T06:18:40;12.10;;;10.55;;
71566;SDS011;59403;47.456;19.120;2023-08-20T06:21:09;16.20;;;11.30;;
71566;SDS011;59403;47.456;19.120;2023-08-20T06:23:36;12.25;;;10.95;;
71566;SDS011;59403;47.456;19.120;2023-08-20T06:26:03;13.57;;;11.55;;
71566;SDS011;59403;47.456;19.120;2023-08-20T06:28:29;12.80;;;11.48;;
71566;SDS011;59403;47.456;19.120;2023-08-20T06:30:56;12.40;;;10.43;;
71566;SDS011;59403;47.456;19.120;2023-08-20T06:33:23;11.90;;;10.63;;
71566;SDS011;59403;47.456;19.120;2023-08-20T06:35:50;11.50;;;10.30;;
71566;SDS011;59403;47.456;19.120;2023-08-20T06:38:18;11.05;;;9.63;;
71566;SDS011;59403;47.456;19.120;2023-08-20T06:40:45;11.82;;;10.60;;
71566;SDS011;59403;47.456;19.120;2023-08-20T06:43:13;11.80;;;9.90;;
71566;SDS011;59403;47.456;19.120;2023-08-20T06:45:39;12.53;;;10.27;;
71566;SDS011;59403;47.456;19.120;2023-08-20T06:48:06;13.90;;;11.40;;
71566;SDS011;59403;47.456;19.120;2023-08-20T06:50:33;11.77;;;10.57;;
71566;SDS011;59403;47.456;19.120;2023-08-20T06:53:00;12.35;;;10.13;;
71566;SDS011;59403;47.456;19.120;2023-08-20T06:55:28;10.93;;;9.82;;
71566;SDS011;59403;47.456;19.120;2023-08-20T06:57:55;12.37;;;10.53;;
71566;SDS011;59403;47.456;19.120;2023-08-20T07:00:22;11.70;;;10.50;;
71566;SDS011;59403;47.456;19.120;2023-08-20T07:02:49;11.93;;;10.52;;
71566;SDS011;59403;47.456;19.120;2023-08-20T07:05:16;12.55;;;10.60;;
71566;SDS011;59403;47.456;19.120;2023-08-20T07:07:43;12.65;;;9.77;;
71566;SDS011;59403;47.456;19.120;2023-08-20T07:10:11;13.03;;;9.80;;
71566;SDS011;59403;47.456;19.120;2023-08-20T07:12:39;10.40;;;9.35;;
71566;SDS011;59403;47.456;19.120;2023-08-20T07:15:07;11.70;;;10.48;;
71566;SDS011;59403;47.456;19.120;2023-08-20T07:17:34;11.55;;;9.80;;
71566;SDS011;59403;47.456;19.120;2023-08-20T07:20:01;10.75;;;9.43;;
71566;SDS011;59403;47.456;19.120;2023-08-20T07:22:29;11.70;;;9.10;;
71566;SDS011;59403;47.456;19.120;2023-08-20T07:24:55;11.57;;;9.30;;
71566;SDS011;59403;47.456;19.120;2023-08-20T07:27:21;10.77;;;9.63;;
71566;SDS011;59403;47.456;19.120;2023-08-20T07:29:49;10.77;;;9.73;;
71566;SDS011;59403;47.456;19.120;2023-08-20T07:32:16;9.50;;;8.50;;
71566;SDS011;59403;47.456;19.120;2023-08-20T07:34:43;9.20;;;8.30;;
71566;SDS011;59403;47.456;19.120;2023-08-20T07:37:12;9.63;;;8.65;;
71566;SDS011;59403;47.456;19.120;2023-08-20T07:39:39;10.20;;;9.20;;
71566;SDS011;59403;47.456;19.120;2023-08-20T07:42:06;10.35;;;9.32;;
71566;SDS011;59403;47.456;19.120;2023-08-20T07:44:33;12.27;;;9.17;;
71566;SDS011;59403;47.456;19.120;2023-08-20T07:47:02;9.55;;;8.60;;
71566;SDS011;59403;47.456;19.120;2023-08-20T07:49:29;9.73;;;8.13;;
71566;SDS011;59403;47.456;19.120;2023-08-20T07:51:56;10.30;;;7.45;;
71566;SDS011;59403;47.456;19.120;2023-08-20T07:54:22;9.45;;;8.48;;
71566;SDS011;59403;47.456;19.120;2023-08-20T07:56:49;9.23;;;8.43;;
71566;SDS011;59403;47.456;19.120;2023-08-20T07:59:19;10.45;;;8.40;;
71566;SDS011;59403;47.456;19.120;2023-08-20T08:01:46;9.85;;;8.07;;
71566;SDS011;59403;47.456;19.120;2023-08-20T08:04:15;8.43;;;7.62;;
71566;SDS011;59403;47.456;19.120;2023-08-20T08:06:42;9.27;;;8.32;;
71566;SDS011;59403;47.456;19.120;2023-08-20T08:09:18;10.27;;;8.93;;
71566;SDS011;59403;47.456;19.120;2023-08-20T08:11:46;9.05;;;8.15;;
71566;SDS011;59403;47.456;19.120;2023-08-20T08:14:12;9.25;;;7.70;;
71566;SDS011;59403;47.456;19.120;2023-08-20T08:16:40;8.38;;;7.47;;
71566;SDS011;59403;47.456;19.120;2023-08-20T08:19:06;10.75;;;7.97;;
71566;SDS011;59403;47.456;19.120;2023-08-20T08:21:35;8.53;;;7.73;;
71566;SDS011;59403;47.456;19.120;2023-08-20T08:24:02;8.45;;;7.60;;
71566;SDS011;59403;47.456;19.120;2023-08-20T08:26:29;8.50;;;7.68;;
71566;SDS011;59403;47.456;19.120;2023-08-20T08:28:56;8.20;;;7.50;;
71566;SDS011;59403;47.456;19.120;2023-08-20T08:31:23;9.50;;;8.60;;
71566;SDS011;59403;47.456;19.120;2023-08-20T08:33:50;9.50;;;7.87;;
71566;SDS011;59403;47.456;19.120;2023-08-20T08:36:17;8.88;;;7.97;;
71566;SDS011;59403;47.456;19.120;2023-08-20T08:38:45;8.70;;;7.20;;
71566;SDS011;59403;47.456;19.120;2023-08-20T08:41:12;9.30;;;7.20;;
71566;SDS011;59403;47.456;19.120;2023-08-20T08:43:40;9.38;;;8.25;;
71566;SDS011;59403;47.456;19.120;2023-08-20T08:46:12;8.97;;;8.13;;
71566;SDS011;59403;47.456;19.120;2023-08-20T08:48:40;9.25;;;8.35;;
71566;SDS011;59403;47.456;19.120;2023-08-20T08:51:08;9.77;;;7.70;;
71566;SDS011;59403;47.456;19.120;2023-08-20T08:53:35;9.38;;;7.78;;
71566;SDS011;59403;47.456;19.120;2023-08-20T08:56:04;9.30;;;8.00;;
71566;SDS011;59403;47.456;19.120;2023-08-20T08:58:32;8.83;;;8.03;;
71566;SDS011;59403;47.456;19.120;2023-08-20T09:00:59;8.80;;;8.00;;
71566;SDS011;59403;47.456;19.120;2023-08-20T09:03:26;10.27;;;8.60;;
71566;SDS011;59403;47.456;19.120;2023-08-20T09:05:54;9.45;;;7.78;;
71566;SDS011;59403;47.456;19.120;2023-08-20T09:08:23;9.07;;;8.18;;
71566;SDS011;59403;47.456;19.120;2023-08-20T09:10:52;9.63;;;8.60;;
71566;SDS011;59403;47.456;19.120;2023-08-20T09:13:23;10.00;;;8.80;;
71566;SDS011;59403;47.456;19.120;2023-08-20T09:15:51;9.95;;;8.95;;
71566;SDS011;59403;47.456;19.120;2023-08-20T09:18:19;10.60;;;8.13;;
71566;SDS011;59403;47.456;19.120;2023-08-20T09:20:47;9.25;;;8.38;;
71566;SDS011;59403;47.456;19.120;2023-08-20T09:23:14;10.80;;;8.70;;
71566;SDS011;59403;47.456;19.120;2023-08-20T09:25:42;11.32;;;8.32;;
71566;SDS011;59403;47.456;19.120;2023-08-20T09:28:10;8.82;;;7.85;;
71566;SDS011;59403;47.456;19.120;2023-08-20T09:30:38;9.48;;;8.52;;
71566;SDS011;59403;47.456;19.120;2023-08-20T09:33:07;8.98;;;8.13;;
71566;SDS011;59403;47.456;19.120;2023-08-20T09:35:36;9.97;;;9.07;;
71566;SDS011;59403;47.456;19.120;2023-08-20T09:38:03;8.70;;;7.78;;
71566;SDS011;59403;47.456;19.120;2023-08-20T09:40:31;9.63;;;8.52;;
71566;SDS011;59403;47.456;19.120;2023-08-20T09:42:58;9.63;;;8.60;;
71566;SDS011;59403;47.456;19.120;2023-08-20T09:45:28;11.27;;;8.70;;
71566;SDS011;59403;47.456;19.120;2023-08-20T09:47:58;9.40;;;8.57;;
71566;SDS011;59403;47.456;19.120;2023-08-20T09:50:27;9.77;;;8.27;;
71566;SDS011;59403;47.456;19.120;2023-08-20T09:53:03;10.02;;;8.95;;
71566;SDS011;59403;47.456;19.120;2023-08-20T09:55:38;8.82;;;8.00;;
71566;SDS011;59403;47.456;19.120;2023-08-20T09:58:07;9.13;;;8.32;;
71566;SDS011;59403;47.456;19.120;2023-08-20T10:00:35;9.30;;;8.27;;
71566;SDS011;59403;47.456;19.120;2023-08-20T10:03:04;9.23;;;8.30;;
71566;SDS011;59403;47.456;19.120;2023-08-20T10:05:31;9.35;;;8.45;;
71566;SDS011;59403;47.456;19.120;2023-08-20T10:07:58;9.43;;;7.78;;
71566;SDS011;59403;47.456;19.120;2023-08-20T10:10:27;9.18;;;8.30;;
71566;SDS011;59403;47.456;19.120;2023-08-20T10:12:55;10.27;;;8.03;;
71566;SDS011;59403;47.456;19.120;2023-08-20T10:15:22;9.20;;;8.30;;
71566;SDS011;59403;47.456;19.120;2023-08-20T10:17:52;8.77;;;7.87;;
71566;SDS011;59403;47.456;19.120;2023-08-20T10:20:20;8.75;;;7.95;;
71566;SDS011;59403;47.456;19.120;2023-08-20T10:22:47;9.32;;;8.48;;
71566;SDS011;59403;47.456;19.120;2023-08-20T10:25:21;9.33;;;8.50;;
71566;SDS011;59403;47.456;19.120;2023-08-20T10:27:49;9.00;;;8.10;;
71566;SDS011;59403;47.456;19.120;2023-08-20T10:30:16;10.60;;;8.57;;
71566;SDS011;59403;47.456;19.120;2023-08-20T10:32:47;9.63;;;8.63;;
71566;SDS011;59403;47.456;19.120;2023-08-20T10:35:15;9.05;;;8.23;;
71566;SDS011;59403;47.456;19.120;2023-08-20T10:38:03;9.17;;;8.27;;
71566;SDS011;59403;47.456;19.120;2023-08-20T10:40:47;8.75;;;7.95;;
71566;SDS011;59403;47.456;19.120;2023-08-20T10:43:27;9.50;;;8.65;;
71566;SDS011;59403;47.456;19.120;2023-08-20T10:46:08;9.32;;;8.13;;
71566;SDS011;59403;47.456;19.120;2023-08-20T10:48:41;9.35;;;8.43;;
71566;SDS011;59403;47.456;19.120;2023-08-20T10:51:09;8.83;;;7.93;;
71566;SDS011;59403;47.456;19.120;2023-08-20T10:53:39;10.48;;;7.72;;
71566;SDS011;59403;47.456;19.120;2023-08-20T10:56:12;8.43;;;7.62;;
71566;SDS011;59403;47.456;19.120;2023-08-20T10:58:41;9.82;;;7.85;;
71566;SDS011;59403;47.456;19.120;2023-08-20T11:01:12;8.65;;;7.85;;
71566;SDS011;59403;47.456;19.120;2023-08-20T11:03:43;8.77;;;7.83;;
71566;SDS011;59403;47.456;19.120;2023-08-20T11:06:11;9.02;;;8.23;;
71566;SDS011;59403;47.456;19.120;2023-08-20T11:08:39;8.50;;;7.70;;
71566;SDS011;59403;47.456;19.120;2023-08-20T11:11:07;8.55;;;7.75;;
71566;SDS011;59403;47.456;19.120;2023-08-20T11:13:36;10.38;;;8.40;;
71566;SDS011;59403;47.456;19.120;2023-08-20T11:16:03;8.80;;;8.00;;
71566;SDS011;59403;47.456;19.120;2023-08-20T11:18:31;8.60;;;7.37;;
71566;SDS011;59403;47.456;19.120;2023-08-20T11:20:59;9.02;;;7.72;;
71566;SDS011;59403;47.456;19.120;2023-08-20T11:23:25;8.82;;;7.93;;
71566;SDS011;59403;47.456;19.120;2023-08-20T11:25:55;8.82;;;7.93;;
71566;SDS011;59403;47.456;19.120;2023-08-20T11:28:24;8.73;;;7.83;;
71566;SDS011;59403;47.456;19.120;2023-08-20T11:30:52;8.88;;;7.97;;
71566;SDS011;59403;47.456;19.120;2023-08-20T11:33:19;8.65;;;7.80;;
71566;SDS011;59403;47.456;19.120;2023-08-20T11:35:47;9.75;;;8.80;;
71566;SDS011;59403;47.456;19.120;2023-08-20T11:38:14;8.73;;;7.93;;
71566;SDS011;59403;47.456;19.120;2023-08-20T11:40:41;9.13;;;7.77;;
71566;SDS011;59403;47.456;19.120;2023-08-20T11:43:09;9.77;;;8.77;;
71566;SDS011;59403;47.456;19.120;2023-08-20T11:45:44;9.38;;;8.43;;
71566;SDS011;59403;47.456;19.120;2023-08-20T11:48:12;9.57;;;8.57;;
71566;SDS011;59403;47.456;19.120;2023-08-20T11:50:39;9.07;;;8.27;;
71566;SDS011;59403;47.456;19.120;2023-08-20T11:53:07;9.03;;;8.27;;
71566;SDS011;59403;47.456;19.120;2023-08-20T11:55:35;9.73;;;8.30;;
71566;SDS011;59403;47.456;19.120;2023-08-20T11:58:02;10.43;;;8.27;;
71566;SDS011;59403;47.456;19.120;2023-08-20T12:00:31;9.10;;;8.20;;
71566;SDS011;59403;47.456;19.120;2023-08-20T12:02:58;9.48;;;8.48;;
71566;SDS011;59403;47.456;19.120;2023-08-20T12:05:28;9.30;;;8.40;;
71566;SDS011;59403;47.456;19.120;2023-08-20T12:07:55;10.73;;;8.75;;
71566;SDS011;59403;47.456;19.120;2023-08-20T12:10:24;9.35;;;8.48;;
71566;SDS011;59403;47.456;19.120;2023-08-20T12:12:52;9.43;;;8.15;;
71566;SDS011;59403;47.456;19.120;2023-08-20T12:15:21;9.25;;;8.35;;
71566;SDS011;59403;47.456;19.120;2023-08-20T12:17:57;9.17;;;8.27;;
71566;SDS011;59403;47.456;19.120;2023-08-20T12:20:29;9.82;;;8.82;;
71566;SDS011;59403;47.456;19.120;2023-08-20T12:23:00;9.63;;;8.65;;
71566;SDS011;59403;47.456;19.120;2023-08-20T12:25:30;9.55;;;8.48;;
71566;SDS011;59403;47.456;19.120;2023-08-20T12:27:58;10.30;;;8.50;;
71566;SDS011;59403;47.456;19.120;2023-08-20T12:30:26;9.77;;;8.87;;
71566;SDS011;59403;47.456;19.120;2023-08-20T12:32:53;9.63;;;8.80;;
71566;SDS011;59403;47.456;19.120;2023-08-20T12:35:21;8.77;;;8.02;;
71566;SDS011;59403;47.456;19.120;2023-08-20T12:37:48;9.25;;;8.35;;
71566;SDS011;59403;47.456;19.120;2023-08-20T12:40:16;9.43;;;8.63;;
71566;SDS011;59403;47.456;19.120;2023-08-20T12:42:43;9.67;;;8.77;;
71566;SDS011;59403;47.456;19.120;2023-08-20T12:45:10;8.90;;;8.10;;
71566;SDS011;59403;47.456;19.120;2023-08-20T12:47:38;9.63;;;8.50;;
71566;SDS011;59403;47.456;19.120;2023-08-20T12:50:06;10.27;;;8.45;;
71566;SDS011;59403;47.456;19.120;2023-08-20T12:52:35;9.38;;;8.45;;
71566;SDS011;59403;47.456;19.120;2023-08-20T12:55:01;9.13;;;8.33;;
71566;SDS011;59403;47.456;19.120;2023-08-20T12:57:29;11.32;;;8.57;;
71566;SDS011;59403;47.456;19.120;2023-08-20T12:59:56;10.05;;;8.95;;
71566;SDS011;59403;47.456;19.120;2023-08-20T13:02:24;10.20;;;8.90;;
71566;SDS011;59403;47.456;19.120;2023-08-20T13:04:52;9.60;;;8.80;;
71566;SDS011;59403;47.456;19.120;2023-08-20T13:07:19;9.57;;;8.33;;
71566;SDS011;59403;47.456;19.120;2023-08-20T13:09:48;9.95;;;9.05;;
71566;SDS011;59403;47.456;19.120;2023-08-20T13:12:15;9.43;;;8.63;;
71566;SDS011;59403;47.456;19.120;2023-08-20T13:14:45;9.27;;;8.48;;
71566;SDS011;59403;47.456;19.120;2023-08-20T13:17:12;9.25;;;8.55;;
71566;SDS011;59403;47.456;19.120;2023-08-20T13:19:39;10.43;;;9.40;;
71566;SDS011;59403;47.456;19.120;2023-08-20T13:22:06;10.30;;;9.40;;
71566;SDS011;59403;47.456;19.120;2023-08-20T13:24:33;11.23;;;9.00;;
71566;SDS011;59403;47.456;19.120;2023-08-20T13:27:02;9.82;;;8.93;;
71566;SDS011;59403;47.456;19.120;2023-08-20T13:29:29;11.25;;;9.93;;
71566;SDS011;59403;47.456;19.120;2023-08-20T13:31:56;12.07;;;10.00;;
71566;SDS011;59403;47.456;19.120;2023-08-20T13:34:23;10.45;;;9.45;;
71566;SDS011;59403;47.456;19.120;2023-08-20T13:36:49;10.30;;;9.27;;
71566;SDS011;59403;47.456;19.120;2023-08-20T13:39:16;9.65;;;8.75;;
71566;SDS011;59403;47.456;19.120;2023-08-20T13:41:44;10.57;;;9.00;;
71566;SDS011;59403;47.456;19.120;2023-08-20T13:44:13;10.10;;;9.07;;
71566;SDS011;59403;47.456;19.120;2023-08-20T13:46:40;10.38;;;9.27;;
71566;SDS011;59403;47.456;19.120;2023-08-20T13:49:07;9.70;;;8.85;;
71566;SDS011;59403;47.456;19.120;2023-08-20T13:51:34;9.25;;;8.45;;
71566;SDS011;59403;47.456;19.120;2023-08-20T13:54:01;9.38;;;8.55;;
71566;SDS011;59403;47.456;19.120;2023-08-20T13:56:28;10.07;;;9.07;;
71566;SDS011;59403;47.456;19.120;2023-08-20T13:58:55;10.18;;;8.35;;
71566;SDS011;59403;47.456;19.120;2023-08-20T14:01:23;13.20;;;8.32;;
71566;SDS011;59403;47.456;19.120;2023-08-20T14:03:51;9.75;;;8.77;;
71566;SDS011;59403;47.456;19.120;2023-08-20T14:06:19;9.65;;;8.30;;
71566;SDS011;59403;47.456;19.120;2023-08-20T14:08:46;9.67;;;8.67;;
71566;SDS011;59403;47.456;19.120;2023-08-20T14:11:13;10.00;;;8.95;;
71566;SDS011;59403;47.456;19.120;2023-08-20T14:13:40;9.70;;;8.90;;
71566;SDS011;59403;47.456;19.120;2023-08-20T14:16:08;10.00;;;9.07;;
71566;SDS011;59403;47.456;19.120;2023-08-20T14:18:36;9.75;;;8.88;;
71566;SDS011;59403;47.456;19.120;2023-08-20T14:21:03;9.97;;;9.03;;
71566;SDS011;59403;47.456;19.120;2023-08-20T14:23:30;10.98;;;8.88;;
71566;SDS011;59403;47.456;19.120;2023-08-20T14:25:57;10.05;;;8.27;;
71566;SDS011;59403;47.456;19.120;2023-08-20T14:28:24;9.25;;;8.35;;